SBI2504 UNNT-UUDD
Flight info
| Callsign | SBI2504 |
|---|---|
| Flight time | N/A |
| Altitude | 32000 |
| Route | OGAMA1K OGAMA A308 ML A305 ABITI M864 UMTEK/K0830F340 M864 AGNOK/K0791F280 M864 KERUN P164 IDMOR M864 EKSER/K0824F340 M864 IBROT T535 OKNAN T787 URAGO URAGO3L |
| Aircraft | A321/M-SDE3FGHIRWY/LB1 |
Departure
| Time | 2026-05-06 17:48 |
|---|---|
| Airport | Novosibirsk Tolmachevo Airport (UNNT) |
Arrival
| Time | N/A |
|---|---|
| Airport | Domodedovo International Airport (UUDD) |
| Time | Latitude | Longitude | Altitude | Speed | Heading |
|---|---|---|---|---|---|
| 2026-05-06 16:50 | 55.00939 | 82.66266 | 373 ft | 0 kts | 170° |
| 2026-05-06 17:34 | 55.00961 | 82.66264 | 373 ft | 3 kts | 172° |
| 2026-05-06 17:34 | 55.00982 | 82.66255 | 373 ft | 4 kts | 137° |
| 2026-05-06 17:34 | 55.00990 | 82.66221 | 373 ft | 4 kts | 77° |
| 2026-05-06 17:35 | 55.00984 | 82.66187 | 373 ft | 0 kts | 71° |
| 2026-05-06 17:42 | 55.00991 | 82.66228 | 373 ft | 9 kts | 73° |
| 2026-05-06 17:42 | 55.01025 | 82.66401 | 373 ft | 21 kts | 69° |
| 2026-05-06 17:43 | 55.01080 | 82.66638 | 373 ft | 15 kts | 68° |
| 2026-05-06 17:43 | 55.01099 | 82.66796 | 373 ft | 11 kts | 87° |
| 2026-05-06 17:43 | 55.01079 | 82.66925 | 373 ft | 13 kts | 94° |
| 2026-05-06 17:43 | 55.01093 | 82.67112 | 373 ft | 15 kts | 82° |
| 2026-05-06 17:44 | 55.01105 | 82.67256 | 373 ft | 9 kts | 83° |
| 2026-05-06 17:44 | 55.01111 | 82.67405 | 373 ft | 18 kts | 82° |
| 2026-05-06 17:44 | 55.01207 | 82.67552 | 373 ft | 19 kts | 30° |
| 2026-05-06 17:44 | 55.01312 | 82.67662 | 373 ft | 17 kts | 31° |
| 2026-05-06 17:45 | 55.01357 | 82.67708 | 372 ft | 0 kts | 30° |
| 2026-05-06 17:45 | 55.01376 | 82.67727 | 372 ft | 11 kts | 31° |
| 2026-05-06 17:45 | 55.01466 | 82.67770 | 371 ft | 12 kts | 350° |
| 2026-05-06 17:46 | 55.01493 | 82.67718 | 371 ft | 5 kts | 253° |
| 2026-05-06 17:46 | 55.01483 | 82.67674 | 371 ft | 0 kts | 254° |
| 2026-05-06 17:46 | 55.01482 | 82.67665 | 371 ft | 2 kts | 256° |
| 2026-05-06 17:46 | 55.01481 | 82.67662 | 371 ft | 0 kts | 257° |
| 2026-05-06 17:47 | 55.01473 | 82.67590 | 371 ft | 30 kts | 259° |
| 2026-05-06 17:48 | 55.01402 | 82.66802 | 375 ft | 97 kts | 261° |
| 2026-05-06 17:48 | 55.01268 | 82.65320 | 373 ft | 148 kts | 261° |
| 2026-05-06 17:48 | 55.01090 | 82.63357 | 496 ft | 177 kts | 261° |
| 2026-05-06 17:48 | 55.00904 | 82.61253 | 1162 ft | 175 kts | 263° |
| 2026-05-06 17:49 | 55.00721 | 82.59166 | 1786 ft | 176 kts | 265° |
| 2026-05-06 17:49 | 55.00519 | 82.56931 | 1786 ft | 198 kts | 264° |
| 2026-05-06 17:49 | 55.00290 | 82.54548 | 2240 ft | 196 kts | 264° |
| 2026-05-06 17:49 | 55.00359 | 82.52173 | 2432 ft | 208 kts | 296° |
| 2026-05-06 17:50 | 55.01306 | 82.50167 | 2542 ft | 227 kts | 316° |
| 2026-05-06 17:50 | 55.02555 | 82.48241 | 2814 ft | 242 kts | 318° |
| 2026-05-06 17:50 | 55.03854 | 82.46339 | 3458 ft | 246 kts | 320° |
| 2026-05-06 17:50 | 55.05169 | 82.44395 | 4014 ft | 251 kts | 319° |
| 2026-05-06 17:51 | 55.06497 | 82.42374 | 4653 ft | 253 kts | 318° |
| 2026-05-06 17:51 | 55.07798 | 82.40344 | 5247 ft | 256 kts | 317° |
| 2026-05-06 17:51 | 55.09114 | 82.38245 | 5823 ft | 260 kts | 317° |
| 2026-05-06 17:51 | 55.10453 | 82.36078 | 5983 ft | 261 kts | 317° |
| 2026-05-06 17:52 | 55.11778 | 82.33914 | 6010 ft | 260 kts | 317° |
| 2026-05-06 17:52 | 55.13097 | 82.31750 | 6016 ft | 260 kts | 317° |
| 2026-05-06 17:52 | 55.14414 | 82.29582 | 5996 ft | 260 kts | 317° |
| 2026-05-06 17:52 | 55.15723 | 82.27419 | 6010 ft | 259 kts | 317° |
| 2026-05-06 17:53 | 55.17033 | 82.25251 | 6018 ft | 259 kts | 317° |
| 2026-05-06 17:53 | 55.18323 | 82.23115 | 6012 ft | 252 kts | 317° |
| 2026-05-06 17:53 | 55.19566 | 82.21054 | 6009 ft | 236 kts | 317° |
| 2026-05-06 17:53 | 55.20754 | 82.19083 | 6019 ft | 244 kts | 315° |
| 2026-05-06 17:54 | 55.21827 | 82.16662 | 6033 ft | 260 kts | 300° |
| 2026-05-06 17:54 | 55.22569 | 82.13743 | 6555 ft | 264 kts | 295° |
| 2026-05-06 17:54 | 55.23287 | 82.10800 | 6877 ft | 267 kts | 295° |
| 2026-05-06 17:54 | 55.23956 | 82.08104 | 6948 ft | 266 kts | 295° |
| 2026-05-06 17:55 | 55.24250 | 82.06919 | 6948 ft | 265 kts | 295° |
| 2026-05-06 17:55 | 55.24990 | 82.03929 | 6959 ft | 265 kts | 295° |
| 2026-05-06 17:55 | 55.25230 | 82.02957 | 6960 ft | 265 kts | 295° |
| 2026-05-06 17:55 | 55.25454 | 82.02051 | 6961 ft | 265 kts | 295° |
| 2026-05-06 17:56 | 55.25758 | 82.00817 | 6956 ft | 265 kts | 295° |
| 2026-05-06 17:56 | 55.26161 | 81.99176 | 6965 ft | 265 kts | 295° |
| 2026-05-06 17:56 | 55.26891 | 81.96214 | 6963 ft | 268 kts | 296° |
| 2026-05-06 17:56 | 55.27605 | 81.93318 | 6964 ft | 269 kts | 296° |
| 2026-05-06 17:57 | 55.27751 | 81.92728 | 6966 ft | 269 kts | 296° |
| 2026-05-06 17:57 | 55.28491 | 81.89727 | 6963 ft | 269 kts | 296° |
| 2026-05-06 17:57 | 55.28826 | 81.88368 | 6967 ft | 269 kts | 296° |
| 2026-05-06 17:59 | 55.29517 | 81.85599 | 6961 ft | 269 kts | 296° |
| 2026-05-06 18:00 | 55.30257 | 81.82584 | 6966 ft | 269 kts | 296° |
| 2026-05-06 18:00 | 55.30990 | 81.79563 | 6974 ft | 269 kts | 296° |
| 2026-05-06 18:00 | 55.31722 | 81.76536 | 6975 ft | 269 kts | 296° |
| 2026-05-06 18:00 | 55.32452 | 81.73515 | 6972 ft | 269 kts | 296° |
| 2026-05-06 18:01 | 55.33186 | 81.70485 | 6975 ft | 269 kts | 296° |
| 2026-05-06 18:01 | 55.33908 | 81.67503 | 6956 ft | 269 kts | 296° |
| 2026-05-06 18:01 | 55.33963 | 81.67280 | 6957 ft | 269 kts | 296° |
| 2026-05-06 18:02 | 55.34492 | 81.65083 | 6958 ft | 269 kts | 296° |
| 2026-05-06 18:02 | 55.35221 | 81.62058 | 6968 ft | 269 kts | 296° |
| 2026-05-06 18:02 | 55.35924 | 81.59141 | 6971 ft | 269 kts | 296° |
| 2026-05-06 18:03 | 55.36598 | 81.56339 | 6974 ft | 269 kts | 296° |
| 2026-05-06 18:03 | 55.37318 | 81.53342 | 6975 ft | 269 kts | 296° |
| 2026-05-06 18:04 | 55.38055 | 81.50271 | 6978 ft | 269 kts | 295° |
| 2026-05-06 18:04 | 55.38782 | 81.47239 | 6978 ft | 269 kts | 295° |
| 2026-05-06 18:04 | 55.39517 | 81.44194 | 7366 ft | 272 kts | 296° |
| 2026-05-06 18:04 | 55.40258 | 81.41126 | 7990 ft | 273 kts | 296° |
| 2026-05-06 18:05 | 55.41003 | 81.38044 | 8590 ft | 274 kts | 296° |
| 2026-05-06 18:05 | 55.41748 | 81.34954 | 9179 ft | 276 kts | 296° |
| 2026-05-06 18:05 | 55.42484 | 81.31884 | 9736 ft | 278 kts | 296° |
| 2026-05-06 18:05 | 55.43253 | 81.28674 | 10245 ft | 284 kts | 296° |
| 2026-05-06 18:06 | 55.44045 | 81.25369 | 10360 ft | 302 kts | 296° |
| 2026-05-06 18:06 | 55.44884 | 81.21865 | 10491 ft | 319 kts | 296° |
| 2026-05-06 18:06 | 55.45769 | 81.18168 | 10611 ft | 335 kts | 295° |
| 2026-05-06 18:06 | 55.46677 | 81.14328 | 10915 ft | 344 kts | 293° |
| 2026-05-06 18:07 | 55.46730 | 81.14082 | 10938 ft | 345 kts | 292° |
| 2026-05-06 18:07 | 55.46799 | 81.13745 | 10982 ft | 345 kts | 290° |
| 2026-05-06 18:07 | 55.47322 | 81.09577 | 11388 ft | 351 kts | 284° |
| 2026-05-06 18:07 | 55.47861 | 81.05367 | 11879 ft | 353 kts | 287° |
| 2026-05-06 18:08 | 55.48468 | 81.01167 | 12399 ft | 355 kts | 288° |
| 2026-05-06 18:08 | 55.49100 | 80.96945 | 12931 ft | 357 kts | 288° |
| 2026-05-06 18:08 | 55.49733 | 80.92684 | 13465 ft | 360 kts | 288° |
| 2026-05-06 18:08 | 55.50354 | 80.88403 | 13953 ft | 362 kts | 287° |
| 2026-05-06 18:09 | 55.50960 | 80.84088 | 14432 ft | 364 kts | 287° |
| 2026-05-06 18:09 | 55.51554 | 80.79739 | 14892 ft | 366 kts | 287° |
| 2026-05-06 18:09 | 55.52146 | 80.75353 | 15350 ft | 368 kts | 287° |
| 2026-05-06 18:09 | 55.52733 | 80.70994 | 15798 ft | 370 kts | 287° |
| 2026-05-06 18:10 | 55.53336 | 80.66510 | 16258 ft | 371 kts | 287° |
| 2026-05-06 18:10 | 55.53934 | 80.62059 | 16699 ft | 373 kts | 287° |
| 2026-05-06 18:10 | 55.54525 | 80.57648 | 17140 ft | 375 kts | 287° |
| 2026-05-06 18:10 | 55.55125 | 80.53159 | 17583 ft | 377 kts | 287° |
| 2026-05-06 18:11 | 55.55732 | 80.48625 | 17970 ft | 379 kts | 287° |
| 2026-05-06 18:11 | 55.56342 | 80.44090 | 18395 ft | 380 kts | 286° |
| 2026-05-06 18:11 | 55.56950 | 80.39552 | 18754 ft | 381 kts | 286° |
| 2026-05-06 18:11 | 55.57563 | 80.34961 | 19129 ft | 383 kts | 286° |
| 2026-05-06 18:12 | 55.58173 | 80.30373 | 19479 ft | 385 kts | 286° |
| 2026-05-06 18:12 | 55.58781 | 80.25750 | 19830 ft | 387 kts | 286° |
| 2026-05-06 18:12 | 55.59389 | 80.21111 | 20173 ft | 388 kts | 286° |
| 2026-05-06 18:12 | 55.60001 | 80.16448 | 20522 ft | 390 kts | 286° |
| 2026-05-06 18:13 | 55.60613 | 80.11762 | 20866 ft | 392 kts | 285° |
| 2026-05-06 18:13 | 55.61223 | 80.07042 | 21211 ft | 394 kts | 285° |
| 2026-05-06 18:13 | 55.61832 | 80.02325 | 21541 ft | 395 kts | 285° |
| 2026-05-06 18:13 | 55.62441 | 79.97570 | 21875 ft | 397 kts | 285° |
| 2026-05-06 18:14 | 55.63055 | 79.92785 | 22210 ft | 399 kts | 285° |
| 2026-05-06 18:14 | 55.63663 | 79.88040 | 22533 ft | 401 kts | 285° |
| 2026-05-06 18:14 | 55.64283 | 79.83228 | 22878 ft | 402 kts | 285° |
| 2026-05-06 18:14 | 55.64914 | 79.78374 | 23196 ft | 404 kts | 285° |
| 2026-05-06 18:15 | 55.65543 | 79.73512 | 23505 ft | 406 kts | 285° |
| 2026-05-06 18:15 | 55.66174 | 79.68623 | 23774 ft | 408 kts | 285° |
| 2026-05-06 18:15 | 55.66801 | 79.63723 | 24054 ft | 409 kts | 285° |
| 2026-05-06 18:15 | 55.67427 | 79.58795 | 24319 ft | 411 kts | 285° |
| 2026-05-06 18:16 | 55.68057 | 79.53843 | 24588 ft | 412 kts | 285° |
| 2026-05-06 18:16 | 55.68685 | 79.48880 | 24851 ft | 413 kts | 285° |
| 2026-05-06 18:16 | 55.69316 | 79.43886 | 25113 ft | 415 kts | 285° |
| 2026-05-06 18:16 | 55.69940 | 79.38908 | 25371 ft | 416 kts | 285° |
| 2026-05-06 18:17 | 55.70571 | 79.33864 | 25629 ft | 417 kts | 285° |
| 2026-05-06 18:17 | 55.71200 | 79.28818 | 25868 ft | 419 kts | 284° |
| 2026-05-06 18:17 | 55.71826 | 79.23770 | 26113 ft | 420 kts | 284° |
| 2026-05-06 18:17 | 55.72446 | 79.18760 | 26355 ft | 421 kts | 284° |
| 2026-05-06 18:18 | 55.73070 | 79.13717 | 26578 ft | 423 kts | 284° |
| 2026-05-06 18:18 | 55.73701 | 79.08606 | 26834 ft | 424 kts | 284° |
| 2026-05-06 18:18 | 55.74328 | 79.03475 | 27068 ft | 425 kts | 284° |
| 2026-05-06 18:18 | 55.74954 | 78.98331 | 27290 ft | 426 kts | 284° |
| 2026-05-06 18:19 | 55.75580 | 78.93174 | 27518 ft | 428 kts | 284° |
| 2026-05-06 18:19 | 55.76206 | 78.87996 | 27740 ft | 429 kts | 284° |
| 2026-05-06 18:19 | 55.76831 | 78.82815 | 27953 ft | 430 kts | 284° |
| 2026-05-06 18:19 | 55.77461 | 78.77601 | 28194 ft | 431 kts | 284° |
| 2026-05-06 18:20 | 55.78088 | 78.72400 | 28513 ft | 430 kts | 284° |
| 2026-05-06 18:20 | 55.78711 | 78.67205 | 28812 ft | 429 kts | 284° |
| 2026-05-06 18:20 | 55.79321 | 78.62073 | 29119 ft | 428 kts | 284° |
| 2026-05-06 18:20 | 55.79931 | 78.56886 | 29436 ft | 427 kts | 284° |
| 2026-05-06 18:21 | 55.80535 | 78.51716 | 29739 ft | 427 kts | 284° |
| 2026-05-06 18:21 | 55.81138 | 78.46556 | 30025 ft | 426 kts | 284° |
| 2026-05-06 18:21 | 55.81742 | 78.41410 | 30273 ft | 425 kts | 284° |
| 2026-05-06 18:21 | 55.82344 | 78.36262 | 30519 ft | 424 kts | 284° |
| 2026-05-06 18:22 | 55.82941 | 78.31129 | 30753 ft | 424 kts | 284° |
| 2026-05-06 18:22 | 55.83537 | 78.26001 | 30991 ft | 423 kts | 284° |
| 2026-05-06 18:22 | 55.83935 | 78.22546 | 31149 ft | 423 kts | 283° |
| 2026-05-06 18:22 | 55.84525 | 78.17425 | 31382 ft | 422 kts | 283° |
| 2026-05-06 18:23 | 55.85110 | 78.12316 | 31619 ft | 421 kts | 283° |
| 2026-05-06 18:23 | 55.85693 | 78.07211 | 31841 ft | 421 kts | 283° |
| 2026-05-06 18:23 | 55.86273 | 78.02106 | 31994 ft | 421 kts | 283° |
| 2026-05-06 18:23 | 55.86850 | 77.97000 | 32021 ft | 420 kts | 283° |
| 2026-05-06 18:24 | 55.87980 | 77.86844 | 32030 ft | 420 kts | 283° |
| 2026-05-06 18:24 | 55.89046 | 77.76613 | 32030 ft | 420 kts | 282° |
| 2026-05-06 18:25 | 55.90087 | 77.66361 | 32028 ft | 420 kts | 282° |
| 2026-05-06 18:25 | 55.91124 | 77.56114 | 32027 ft | 420 kts | 282° |
| 2026-05-06 18:26 | 55.92165 | 77.45865 | 32014 ft | 420 kts | 282° |
| 2026-05-06 18:26 | 55.93195 | 77.35662 | 32025 ft | 420 kts | 282° |
| 2026-05-06 18:27 | 55.94223 | 77.25379 | 32030 ft | 421 kts | 282° |
| 2026-05-06 18:27 | 55.95241 | 77.15083 | 32030 ft | 421 kts | 282° |
| 2026-05-06 18:28 | 55.96257 | 77.04784 | 32025 ft | 421 kts | 282° |
| 2026-05-06 18:28 | 55.97261 | 76.94472 | 32032 ft | 421 kts | 282° |
| 2026-05-06 18:29 | 55.98260 | 76.84155 | 32020 ft | 421 kts | 281° |
| 2026-05-06 18:29 | 55.99244 | 76.73898 | 32030 ft | 422 kts | 281° |
| 2026-05-06 18:30 | 56.00223 | 76.63512 | 32033 ft | 422 kts | 281° |
| 2026-05-06 18:30 | 56.01183 | 76.53173 | 32030 ft | 421 kts | 281° |
| 2026-05-06 18:31 | 56.02132 | 76.42904 | 32027 ft | 421 kts | 281° |
| 2026-05-06 18:31 | 56.03089 | 76.32566 | 32027 ft | 421 kts | 281° |
| 2026-05-06 18:32 | 56.04032 | 76.22222 | 32023 ft | 422 kts | 281° |
| 2026-05-06 18:32 | 56.04965 | 76.11860 | 32025 ft | 422 kts | 280° |
| 2026-05-06 18:33 | 56.05894 | 76.01482 | 32028 ft | 421 kts | 280° |
| 2026-05-06 18:33 | 56.06808 | 75.91121 | 32030 ft | 421 kts | 280° |
| 2026-05-06 18:34 | 56.07713 | 75.80756 | 32026 ft | 421 kts | 280° |
| 2026-05-06 18:34 | 56.08615 | 75.70385 | 32027 ft | 421 kts | 280° |
| 2026-05-06 18:35 | 56.09503 | 75.60071 | 32025 ft | 421 kts | 280° |
| 2026-05-06 18:35 | 56.10387 | 75.49696 | 32024 ft | 421 kts | 280° |
| 2026-05-06 18:36 | 56.11259 | 75.39323 | 32024 ft | 421 kts | 279° |
| 2026-05-06 18:36 | 56.12118 | 75.28931 | 32024 ft | 421 kts | 279° |
| 2026-05-06 18:37 | 56.12971 | 75.18549 | 32022 ft | 421 kts | 279° |
| 2026-05-06 18:37 | 56.13820 | 75.08142 | 32022 ft | 421 kts | 279° |
| 2026-05-06 18:38 | 56.14660 | 74.97736 | 32016 ft | 421 kts | 279° |
| 2026-05-06 18:38 | 56.15488 | 74.87317 | 32010 ft | 422 kts | 279° |
| 2026-05-06 18:39 | 56.16314 | 74.76904 | 32017 ft | 422 kts | 279° |
| 2026-05-06 18:40 | 56.17523 | 74.61306 | 32014 ft | 420 kts | 279° |
| 2026-05-06 18:40 | 56.18319 | 74.50935 | 32014 ft | 419 kts | 278° |
| 2026-05-06 18:41 | 56.19104 | 74.40620 | 31992 ft | 419 kts | 278° |
| 2026-05-06 18:41 | 56.19876 | 74.30223 | 32004 ft | 420 kts | 278° |
| 2026-05-06 18:42 | 56.20640 | 74.19823 | 32010 ft | 420 kts | 278° |
| 2026-05-06 18:42 | 56.21399 | 74.09407 | 32007 ft | 420 kts | 278° |
| 2026-05-06 18:43 | 56.22148 | 73.98975 | 32007 ft | 420 kts | 278° |
| 2026-05-06 18:43 | 56.22579 | 73.88511 | 32002 ft | 421 kts | 271° |
| 2026-05-06 18:44 | 56.22546 | 73.77986 | 31989 ft | 421 kts | 270° |
| 2026-05-06 18:44 | 56.22507 | 73.67433 | 32000 ft | 422 kts | 270° |
| 2026-05-06 18:45 | 56.22468 | 73.56875 | 32001 ft | 422 kts | 270° |
| 2026-05-06 18:45 | 56.22415 | 73.46403 | 31989 ft | 422 kts | 270° |
| 2026-05-06 18:46 | 56.22344 | 73.35846 | 31995 ft | 422 kts | 270° |
| 2026-05-06 18:46 | 56.22272 | 73.25310 | 31997 ft | 422 kts | 270° |
| 2026-05-06 18:47 | 56.22191 | 73.14754 | 31987 ft | 422 kts | 270° |
| 2026-05-06 18:47 | 56.22095 | 73.04207 | 31989 ft | 421 kts | 269° |
| 2026-05-06 18:48 | 56.21993 | 72.93676 | 31983 ft | 421 kts | 269° |
| 2026-05-06 18:48 | 56.21887 | 72.83159 | 31996 ft | 421 kts | 269° |
| 2026-05-06 18:49 | 56.21768 | 72.72635 | 31999 ft | 421 kts | 269° |
| 2026-05-06 18:49 | 56.21643 | 72.62115 | 32002 ft | 421 kts | 269° |
| 2026-05-06 18:50 | 56.21506 | 72.51587 | 32000 ft | 422 kts | 269° |
| 2026-05-06 18:50 | 56.21384 | 72.42658 | 31994 ft | 422 kts | 269° |
| 2026-05-06 18:51 | 56.21239 | 72.32109 | 32001 ft | 422 kts | 269° |
| 2026-05-06 18:51 | 56.21074 | 72.21576 | 31983 ft | 422 kts | 269° |
| 2026-05-06 18:52 | 56.20896 | 72.11033 | 31985 ft | 422 kts | 269° |
| 2026-05-06 18:52 | 56.20724 | 72.00502 | 31992 ft | 422 kts | 269° |
| 2026-05-06 18:53 | 56.20538 | 71.89957 | 31980 ft | 422 kts | 268° |
| 2026-05-06 18:53 | 56.20338 | 71.79413 | 31997 ft | 422 kts | 268° |
| 2026-05-06 18:54 | 56.20131 | 71.68875 | 31993 ft | 422 kts | 268° |
| 2026-05-06 18:54 | 56.19916 | 71.58338 | 31998 ft | 422 kts | 268° |
| 2026-05-06 18:55 | 56.19689 | 71.47809 | 31985 ft | 422 kts | 268° |
| 2026-05-06 18:55 | 56.19461 | 71.37274 | 31998 ft | 422 kts | 268° |
| 2026-05-06 18:56 | 56.19220 | 71.26736 | 31995 ft | 422 kts | 268° |
| 2026-05-06 18:56 | 56.18971 | 71.16208 | 31998 ft | 422 kts | 268° |
| 2026-05-06 18:57 | 56.18703 | 71.05673 | 31996 ft | 422 kts | 268° |
| 2026-05-06 18:57 | 56.18426 | 70.95172 | 31995 ft | 421 kts | 268° |
| 2026-05-06 18:58 | 56.18151 | 70.84679 | 32002 ft | 420 kts | 268° |
| 2026-05-06 18:58 | 56.17877 | 70.74194 | 32000 ft | 421 kts | 267° |
| 2026-05-06 18:59 | 56.17581 | 70.63688 | 31983 ft | 421 kts | 267° |
| 2026-05-06 18:59 | 56.17291 | 70.53874 | 31985 ft | 421 kts | 267° |
| 2026-05-06 19:00 | 56.16981 | 70.43437 | 31981 ft | 421 kts | 267° |
| 2026-05-06 19:00 | 56.16658 | 70.32953 | 31997 ft | 421 kts | 267° |
| 2026-05-06 19:01 | 56.16328 | 70.22464 | 31985 ft | 421 kts | 267° |
| 2026-05-06 19:01 | 56.15988 | 70.11947 | 31995 ft | 422 kts | 266° |
| 2026-05-06 19:02 | 56.15641 | 70.01438 | 31981 ft | 422 kts | 266° |
| 2026-05-06 19:02 | 56.15280 | 69.90929 | 31988 ft | 422 kts | 266° |
| 2026-05-06 19:03 | 56.14918 | 69.80427 | 31998 ft | 422 kts | 266° |
| 2026-05-06 19:03 | 56.14541 | 69.69918 | 31980 ft | 422 kts | 266° |
| 2026-05-06 19:04 | 56.14220 | 69.59422 | 31991 ft | 422 kts | 268° |
| 2026-05-06 19:04 | 56.14132 | 69.48885 | 31987 ft | 423 kts | 269° |
| 2026-05-06 19:05 | 56.14592 | 69.38404 | 31987 ft | 423 kts | 281° |
| 2026-05-06 19:05 | 56.15715 | 69.28037 | 31985 ft | 423 kts | 279° |
| 2026-05-06 19:06 | 56.16606 | 69.19339 | 32006 ft | 423 kts | 279° |
| 2026-05-06 19:06 | 56.17646 | 69.09045 | 31979 ft | 422 kts | 279° |
| 2026-05-06 19:07 | 56.18699 | 68.98682 | 31976 ft | 422 kts | 279° |
| 2026-05-06 19:07 | 56.19751 | 68.88297 | 31975 ft | 422 kts | 279° |
| 2026-05-06 19:08 | 56.20797 | 68.77904 | 31977 ft | 423 kts | 279° |
| 2026-05-06 19:08 | 56.21827 | 68.67511 | 31984 ft | 423 kts | 279° |
| 2026-05-06 19:09 | 56.22848 | 68.57099 | 31984 ft | 423 kts | 279° |
| 2026-05-06 19:09 | 56.23854 | 68.46695 | 31972 ft | 423 kts | 279° |
| 2026-05-06 19:10 | 56.24862 | 68.36287 | 31966 ft | 423 kts | 279° |
| 2026-05-06 19:10 | 56.25866 | 68.25932 | 31969 ft | 423 kts | 279° |
| 2026-05-06 19:11 | 56.26860 | 68.15485 | 31972 ft | 423 kts | 278° |
| 2026-05-06 19:11 | 56.27837 | 68.05042 | 31978 ft | 423 kts | 278° |
| 2026-05-06 19:12 | 56.28803 | 67.94621 | 31964 ft | 423 kts | 278° |
| 2026-05-06 19:12 | 56.29764 | 67.84172 | 31969 ft | 423 kts | 278° |
| 2026-05-06 19:13 | 56.30718 | 67.73709 | 31971 ft | 423 kts | 278° |
| 2026-05-06 19:13 | 56.31661 | 67.63264 | 31966 ft | 423 kts | 278° |
| 2026-05-06 19:14 | 56.32598 | 67.52846 | 31968 ft | 423 kts | 278° |
| 2026-05-06 19:14 | 56.33534 | 67.42362 | 31959 ft | 423 kts | 278° |
| 2026-05-06 19:15 | 56.34449 | 67.31867 | 31964 ft | 423 kts | 278° |
| 2026-05-06 19:15 | 56.35350 | 67.21369 | 31966 ft | 423 kts | 278° |
| 2026-05-06 19:16 | 56.36245 | 67.10943 | 31956 ft | 423 kts | 277° |
| 2026-05-06 19:16 | 56.37132 | 67.00460 | 31957 ft | 422 kts | 277° |
| 2026-05-06 19:17 | 56.38020 | 66.89953 | 31957 ft | 424 kts | 277° |
| 2026-05-06 19:17 | 56.38892 | 66.79432 | 31951 ft | 424 kts | 277° |
| 2026-05-06 19:18 | 56.39756 | 66.68902 | 31944 ft | 424 kts | 277° |
| 2026-05-06 19:18 | 56.40610 | 66.58386 | 31939 ft | 424 kts | 277° |
| 2026-05-06 19:19 | 56.41459 | 66.47926 | 31940 ft | 424 kts | 277° |
| 2026-05-06 19:19 | 56.42313 | 66.37393 | 31946 ft | 424 kts | 277° |
| 2026-05-06 19:20 | 56.43157 | 66.26829 | 31924 ft | 424 kts | 277° |
| 2026-05-06 19:20 | 56.43985 | 66.16258 | 31941 ft | 425 kts | 277° |
| 2026-05-06 19:21 | 56.44793 | 66.05682 | 31938 ft | 424 kts | 277° |
| 2026-05-06 19:21 | 56.45607 | 65.95136 | 31934 ft | 424 kts | 277° |
| 2026-05-06 19:22 | 56.46406 | 65.84581 | 31932 ft | 424 kts | 276° |
| 2026-05-06 19:22 | 56.47201 | 65.73988 | 31932 ft | 424 kts | 276° |
| 2026-05-06 19:23 | 56.47987 | 65.63424 | 31930 ft | 424 kts | 276° |
| 2026-05-06 19:23 | 56.48757 | 65.52911 | 31932 ft | 424 kts | 276° |
| 2026-05-06 19:24 | 56.49517 | 65.42327 | 31926 ft | 424 kts | 276° |
| 2026-05-06 19:24 | 56.50276 | 65.31744 | 31926 ft | 424 kts | 276° |
| 2026-05-06 19:25 | 56.51046 | 65.21168 | 31928 ft | 424 kts | 276° |
| 2026-05-06 19:25 | 56.51794 | 65.10564 | 31932 ft | 424 kts | 276° |
| 2026-05-06 19:26 | 56.52518 | 64.99978 | 31918 ft | 422 kts | 276° |
| 2026-05-06 19:26 | 56.53239 | 64.89426 | 31920 ft | 423 kts | 276° |
| 2026-05-06 19:27 | 56.53943 | 64.78805 | 31919 ft | 424 kts | 275° |
| 2026-05-06 19:27 | 56.54650 | 64.68199 | 31920 ft | 424 kts | 276° |
| 2026-05-06 19:28 | 56.55348 | 64.57658 | 31922 ft | 424 kts | 275° |
| 2026-05-06 19:28 | 56.56034 | 64.46978 | 31924 ft | 424 kts | 275° |
| 2026-05-06 19:29 | 56.56712 | 64.36421 | 31924 ft | 424 kts | 275° |
| 2026-05-06 19:29 | 56.57387 | 64.25797 | 31911 ft | 424 kts | 275° |
| 2026-05-06 19:30 | 56.58055 | 64.15145 | 31913 ft | 426 kts | 275° |
| 2026-05-06 19:30 | 56.58707 | 64.04456 | 31918 ft | 426 kts | 275° |
| 2026-05-06 19:31 | 56.59350 | 63.93771 | 31919 ft | 426 kts | 275° |
| 2026-05-06 19:31 | 56.60297 | 63.77733 | 31910 ft | 426 kts | 275° |
| 2026-05-06 19:32 | 56.60916 | 63.67028 | 31909 ft | 426 kts | 275° |
| 2026-05-06 19:32 | 56.61534 | 63.56297 | 31912 ft | 426 kts | 275° |
| 2026-05-06 19:33 | 56.62148 | 63.45614 | 31912 ft | 427 kts | 275° |
| 2026-05-06 19:33 | 56.62753 | 63.34849 | 31905 ft | 427 kts | 274° |
| 2026-05-06 19:34 | 56.63343 | 63.24164 | 31906 ft | 427 kts | 274° |
| 2026-05-06 19:34 | 56.63927 | 63.13372 | 31907 ft | 427 kts | 274° |
| 2026-05-06 19:35 | 56.64499 | 63.02657 | 31910 ft | 427 kts | 274° |
| 2026-05-06 19:35 | 56.65068 | 62.91950 | 31898 ft | 426 kts | 274° |
| 2026-05-06 19:36 | 56.65623 | 62.81266 | 31899 ft | 427 kts | 274° |
| 2026-05-06 19:36 | 56.66169 | 62.70537 | 31902 ft | 427 kts | 274° |
| 2026-05-06 19:37 | 56.66703 | 62.59748 | 31894 ft | 427 kts | 274° |
| 2026-05-06 19:37 | 56.67144 | 62.50823 | 31893 ft | 427 kts | 274° |
| 2026-05-06 19:38 | 56.67753 | 62.38307 | 31891 ft | 427 kts | 274° |
| 2026-05-06 19:38 | 56.68268 | 62.27490 | 31892 ft | 427 kts | 274° |
| 2026-05-06 19:39 | 56.68766 | 62.16768 | 31883 ft | 428 kts | 274° |
| 2026-05-06 19:39 | 56.69259 | 62.05939 | 31891 ft | 429 kts | 273° |
| 2026-05-06 19:40 | 56.69735 | 61.95173 | 31899 ft | 429 kts | 273° |
| 2026-05-06 19:40 | 56.70207 | 61.84393 | 31893 ft | 428 kts | 273° |
| 2026-05-06 19:41 | 56.70680 | 61.73569 | 31887 ft | 428 kts | 273° |
| 2026-05-06 19:41 | 56.71138 | 61.62799 | 31890 ft | 428 kts | 273° |
| 2026-05-06 19:42 | 56.71584 | 61.51995 | 31890 ft | 428 kts | 273° |
| 2026-05-06 19:42 | 56.72019 | 61.41129 | 31891 ft | 429 kts | 273° |
| 2026-05-06 19:43 | 56.72445 | 61.30322 | 31890 ft | 429 kts | 273° |
| 2026-05-06 19:43 | 56.72864 | 61.19507 | 31890 ft | 429 kts | 273° |
| 2026-05-06 19:44 | 56.73276 | 61.08620 | 31890 ft | 429 kts | 272° |
| 2026-05-06 19:44 | 56.73672 | 60.97838 | 31893 ft | 429 kts | 272° |
| 2026-05-06 19:45 | 56.74064 | 60.86942 | 31890 ft | 429 kts | 272° |
| 2026-05-06 19:45 | 56.74487 | 60.76136 | 31894 ft | 430 kts | 275° |
| 2026-05-06 19:46 | 56.75222 | 60.65320 | 31896 ft | 431 kts | 277° |
| 2026-05-06 19:46 | 56.76080 | 60.54458 | 31889 ft | 431 kts | 277° |
| 2026-05-06 19:47 | 56.76876 | 60.43657 | 31891 ft | 431 kts | 276° |
| 2026-05-06 19:47 | 56.77610 | 60.32860 | 31887 ft | 431 kts | 276° |
| 2026-05-06 19:48 | 56.78322 | 60.22046 | 31885 ft | 431 kts | 276° |
| 2026-05-06 19:48 | 56.79031 | 60.11201 | 31881 ft | 431 kts | 275° |
| 2026-05-06 19:49 | 56.79710 | 60.00309 | 31881 ft | 432 kts | 275° |
| 2026-05-06 19:49 | 56.80357 | 59.89471 | 32107 ft | 433 kts | 275° |
| 2026-05-06 19:50 | 56.80678 | 59.84001 | 32399 ft | 432 kts | 275° |
| 2026-05-06 19:50 | 56.80998 | 59.78561 | 32676 ft | 431 kts | 275° |
| 2026-05-06 19:50 | 56.81315 | 59.73130 | 32956 ft | 430 kts | 275° |
| 2026-05-06 19:50 | 56.81630 | 59.67708 | 33228 ft | 429 kts | 275° |
| 2026-05-06 19:51 | 56.81943 | 59.62294 | 33489 ft | 428 kts | 275° |
| 2026-05-06 19:51 | 56.82252 | 59.56917 | 33749 ft | 427 kts | 275° |
| 2026-05-06 19:51 | 56.82562 | 59.51498 | 33864 ft | 427 kts | 275° |
| 2026-05-06 19:51 | 56.82866 | 59.46111 | 33880 ft | 426 kts | 274° |
| 2026-05-06 19:52 | 56.83464 | 59.35347 | 33869 ft | 425 kts | 274° |
| 2026-05-06 19:52 | 56.84050 | 59.24637 | 33869 ft | 426 kts | 274° |
| 2026-05-06 19:53 | 56.84532 | 59.15690 | 33868 ft | 426 kts | 274° |
| 2026-05-06 19:53 | 56.85160 | 59.03127 | 33867 ft | 426 kts | 272° |
| 2026-05-06 19:54 | 56.85378 | 58.94125 | 33873 ft | 425 kts | 270° |
| 2026-05-06 19:54 | 56.85499 | 58.83273 | 33875 ft | 425 kts | 270° |
| 2026-05-06 19:55 | 56.85634 | 58.72536 | 33876 ft | 425 kts | 271° |
| 2026-05-06 19:55 | 56.85808 | 58.61742 | 33874 ft | 424 kts | 271° |
| 2026-05-06 19:56 | 56.85984 | 58.50952 | 33865 ft | 424 kts | 271° |
| 2026-05-06 19:56 | 56.86140 | 58.40181 | 33867 ft | 424 kts | 270° |
| 2026-05-06 19:57 | 56.86290 | 58.29402 | 33866 ft | 424 kts | 270° |
| 2026-05-06 19:57 | 56.86435 | 58.18695 | 33863 ft | 424 kts | 270° |
| 2026-05-06 19:58 | 56.86562 | 58.07916 | 33857 ft | 424 kts | 270° |
| 2026-05-06 19:58 | 56.86676 | 57.97140 | 33856 ft | 424 kts | 270° |
| 2026-05-06 19:59 | 56.86784 | 57.86405 | 33862 ft | 424 kts | 270° |
| 2026-05-06 19:59 | 56.86894 | 57.75619 | 33859 ft | 424 kts | 270° |
| 2026-05-06 20:00 | 56.86993 | 57.64838 | 33852 ft | 424 kts | 270° |
| 2026-05-06 20:00 | 56.87067 | 57.54050 | 33858 ft | 424 kts | 270° |
| 2026-05-06 20:01 | 56.87129 | 57.43276 | 33858 ft | 424 kts | 270° |
| 2026-05-06 20:01 | 56.87188 | 57.32547 | 33858 ft | 424 kts | 270° |
| 2026-05-06 20:02 | 56.87240 | 57.21777 | 33852 ft | 424 kts | 270° |
| 2026-05-06 20:02 | 56.87291 | 57.11004 | 33844 ft | 425 kts | 270° |
| 2026-05-06 20:03 | 56.87328 | 57.00154 | 33844 ft | 425 kts | 270° |
| 2026-05-06 20:03 | 56.87356 | 56.89335 | 33855 ft | 425 kts | 270° |
| 2026-05-06 20:04 | 56.87372 | 56.78579 | 33856 ft | 425 kts | 270° |
| 2026-05-06 20:04 | 56.87377 | 56.67775 | 33854 ft | 425 kts | 270° |
| 2026-05-06 20:05 | 56.87376 | 56.56931 | 33853 ft | 425 kts | 270° |
| 2026-05-06 20:05 | 56.87360 | 56.46127 | 33844 ft | 425 kts | 269° |
| 2026-05-06 20:06 | 56.87399 | 56.35312 | 33846 ft | 425 kts | 271° |
| 2026-05-06 20:06 | 56.87538 | 56.24556 | 33847 ft | 425 kts | 271° |
| 2026-05-06 20:07 | 56.87673 | 56.13784 | 33850 ft | 425 kts | 271° |
| 2026-05-06 20:07 | 56.87762 | 56.02987 | 33848 ft | 425 kts | 270° |
| 2026-05-06 20:08 | 56.87825 | 55.92187 | 33844 ft | 425 kts | 270° |
| 2026-05-06 20:08 | 56.87792 | 55.81372 | 33857 ft | 424 kts | 269° |
| 2026-05-06 20:09 | 56.87630 | 55.70575 | 33843 ft | 424 kts | 268° |
| 2026-05-06 20:09 | 56.87452 | 55.59787 | 33834 ft | 424 kts | 268° |
| 2026-05-06 20:10 | 56.87295 | 55.49065 | 33836 ft | 424 kts | 268° |
| 2026-05-06 20:10 | 56.87141 | 55.38285 | 33833 ft | 424 kts | 268° |
| 2026-05-06 20:11 | 56.86974 | 55.27497 | 33836 ft | 424 kts | 268° |
| 2026-05-06 20:11 | 56.86796 | 55.16778 | 33830 ft | 424 kts | 268° |
| 2026-05-06 20:12 | 56.86602 | 55.06113 | 33814 ft | 424 kts | 268° |
| 2026-05-06 20:12 | 56.86402 | 54.95305 | 33816 ft | 425 kts | 268° |
| 2026-05-06 20:13 | 56.86199 | 54.84525 | 33821 ft | 425 kts | 268° |
| 2026-05-06 20:13 | 56.85984 | 54.73729 | 33835 ft | 425 kts | 268° |
| 2026-05-06 20:14 | 56.85755 | 54.62959 | 33840 ft | 423 kts | 268° |
| 2026-05-06 20:14 | 56.85549 | 54.52216 | 33835 ft | 422 kts | 268° |
| 2026-05-06 20:15 | 56.85434 | 54.41512 | 33824 ft | 421 kts | 269° |
| 2026-05-06 20:15 | 56.85318 | 54.30806 | 33816 ft | 421 kts | 268° |
| 2026-05-06 20:16 | 56.85162 | 54.20150 | 33817 ft | 422 kts | 268° |
| 2026-05-06 20:16 | 56.84986 | 54.09422 | 33816 ft | 422 kts | 268° |
| 2026-05-06 20:17 | 56.84750 | 53.98715 | 33817 ft | 422 kts | 267° |
| 2026-05-06 20:17 | 56.84481 | 53.88095 | 33812 ft | 422 kts | 267° |
| 2026-05-06 20:18 | 56.84214 | 53.77383 | 33816 ft | 422 kts | 267° |
| 2026-05-06 20:18 | 56.83943 | 53.66664 | 33800 ft | 422 kts | 267° |
| 2026-05-06 20:19 | 56.83660 | 53.55954 | 33805 ft | 423 kts | 267° |
| 2026-05-06 20:19 | 56.83369 | 53.45204 | 33800 ft | 423 kts | 268° |
| 2026-05-06 20:20 | 56.83268 | 53.34458 | 33810 ft | 423 kts | 270° |
| 2026-05-06 20:20 | 56.83336 | 53.23752 | 33812 ft | 423 kts | 270° |
| 2026-05-06 20:21 | 56.83386 | 53.12997 | 33817 ft | 424 kts | 270° |
| 2026-05-06 20:21 | 56.83376 | 53.02223 | 33816 ft | 424 kts | 269° |
| 2026-05-06 20:22 | 56.83331 | 52.91468 | 33807 ft | 424 kts | 269° |
| 2026-05-06 20:22 | 56.83277 | 52.80693 | 33814 ft | 424 kts | 269° |
| 2026-05-06 20:23 | 56.83201 | 52.69986 | 33831 ft | 424 kts | 269° |
| 2026-05-06 20:23 | 56.83104 | 52.59221 | 33840 ft | 423 kts | 269° |
| 2026-05-06 20:24 | 56.83011 | 52.48507 | 33844 ft | 421 kts | 269° |
| 2026-05-06 20:24 | 56.82906 | 52.37808 | 33841 ft | 420 kts | 269° |
| 2026-05-06 20:25 | 56.82790 | 52.27149 | 33836 ft | 419 kts | 269° |
| 2026-05-06 20:25 | 56.82674 | 52.16501 | 33826 ft | 419 kts | 270° |
| 2026-05-06 20:26 | 56.82777 | 52.05925 | 33823 ft | 419 kts | 272° |
| 2026-05-06 20:26 | 56.83010 | 51.95285 | 33823 ft | 419 kts | 272° |
| 2026-05-06 20:27 | 56.83205 | 51.84639 | 33826 ft | 419 kts | 271° |
| 2026-05-06 20:27 | 56.83345 | 51.74005 | 33849 ft | 419 kts | 271° |
| 2026-05-06 20:28 | 56.83457 | 51.63362 | 33852 ft | 417 kts | 271° |
| 2026-05-06 20:28 | 56.83542 | 51.52845 | 33849 ft | 415 kts | 269° |
| 2026-05-06 20:29 | 56.83291 | 51.42400 | 33846 ft | 414 kts | 266° |
| 2026-05-06 20:29 | 56.82819 | 51.32076 | 33844 ft | 413 kts | 265° |
| 2026-05-06 20:30 | 56.82138 | 51.16454 | 33846 ft | 413 kts | 266° |
| 2026-05-06 20:31 | 56.81728 | 51.05996 | 33847 ft | 413 kts | 266° |
| 2026-05-06 20:31 | 56.81315 | 50.95538 | 33843 ft | 413 kts | 266° |
| 2026-05-06 20:32 | 56.80883 | 50.85091 | 33840 ft | 413 kts | 266° |
| 2026-05-06 20:32 | 56.80443 | 50.74692 | 33852 ft | 413 kts | 266° |
| 2026-05-06 20:33 | 56.79989 | 50.64289 | 33868 ft | 411 kts | 266° |
| 2026-05-06 20:33 | 56.79536 | 50.53907 | 33868 ft | 409 kts | 266° |
| 2026-05-06 20:34 | 56.79070 | 50.43597 | 33868 ft | 408 kts | 266° |
| 2026-05-06 20:34 | 56.78588 | 50.33274 | 33868 ft | 407 kts | 266° |
| 2026-05-06 20:35 | 56.78106 | 50.23053 | 33867 ft | 407 kts | 266° |
| 2026-05-06 20:35 | 56.77625 | 50.12763 | 33867 ft | 406 kts | 266° |
| 2026-05-06 20:36 | 56.77134 | 50.02518 | 33851 ft | 407 kts | 265° |
| 2026-05-06 20:36 | 56.76621 | 49.92264 | 33839 ft | 408 kts | 265° |
| 2026-05-06 20:37 | 56.76093 | 49.81911 | 33851 ft | 409 kts | 265° |
| 2026-05-06 20:37 | 56.75738 | 49.71609 | 33856 ft | 409 kts | 268° |
| 2026-05-06 20:38 | 56.75532 | 49.61244 | 33874 ft | 408 kts | 269° |
| 2026-05-06 20:38 | 56.75305 | 49.50899 | 33874 ft | 408 kts | 268° |
| 2026-05-06 20:39 | 56.75024 | 49.40607 | 33873 ft | 408 kts | 268° |
| 2026-05-06 20:39 | 56.74715 | 49.30269 | 33851 ft | 409 kts | 268° |
| 2026-05-06 20:40 | 56.74403 | 49.19906 | 33865 ft | 410 kts | 268° |
| 2026-05-06 20:40 | 56.74137 | 49.11222 | 33868 ft | 410 kts | 268° |
| 2026-05-06 20:41 | 56.73763 | 48.99147 | 33879 ft | 410 kts | 268° |
| 2026-05-06 20:41 | 56.73493 | 48.90526 | 33883 ft | 410 kts | 267° |
| 2026-05-06 20:42 | 56.73152 | 48.80140 | 33877 ft | 411 kts | 267° |
| 2026-05-06 20:42 | 56.72985 | 48.75009 | 34313 ft | 384 kts | 271° |
| 2026-05-06 20:42 | 56.72855 | 48.70742 | 37082 ft | 295 kts | 269° |
| 2026-05-06 20:42 | 56.72780 | 48.67328 | 38703 ft | 259 kts | 270° |
| 2026-05-06 20:43 | 56.72766 | 48.63874 | 37131 ft | 298 kts | 272° |